< < Back
Terminal Aerodrome Forecast


Current Version              Previous Versions:   1  2  3  4  5  6  7  8  9  

Terminal Aerodrome Forecast

417
FTUS44 KMOB 300500
TAFPNS
TAF
KPNS 300533Z 3006/3106 34009KT P6SM SCT010 BKN014
     FM301200 01008KT P6SM SKC
     FM301800 36008KT P6SM SKC=

Latest METAR

210
SAUS70 KWBC 311700
MTRPNS
METAR KPNS 311653Z 30008KT 10SM CLR 21/05 A2999 RMK AO2 SLP156
T02110050


USA.gov is the U.S. government's official web portal to all federal, state and local government web resources and services.